createdAt,value
2019-01-03T00:01:15.337Z,5.10
2019-01-03T00:03:48.152Z,5.07
2019-01-03T00:06:34.254Z,5.10
2019-01-03T00:09:04.181Z,5.57
2019-01-03T00:11:34.060Z,3.83
2019-01-03T00:14:19.937Z,5.13
2019-01-03T00:16:49.918Z,4.83
2019-01-03T00:19:19.779Z,5.80
2019-01-03T00:21:49.654Z,4.93
2019-01-03T00:24:35.805Z,5.73
2019-01-03T00:27:08.630Z,5.27
2019-01-03T00:29:38.497Z,4.93
2019-01-03T00:32:17.439Z,5.23
2019-01-03T00:34:47.335Z,6.13
2019-01-03T00:37:23.221Z,5.60
2019-01-03T00:39:55.789Z,4.70
2019-01-03T00:42:31.465Z,4.33
2019-01-03T00:45:01.334Z,5.40
2019-01-03T00:47:47.261Z,5.57
2019-01-03T00:50:26.123Z,5.50
2019-01-03T00:53:12.253Z,5.70
2019-01-03T00:55:58.452Z,5.13
2019-01-03T00:58:44.545Z,4.93
2019-01-03T01:01:14.598Z,5.47
2019-01-03T01:04:00.919Z,4.63
2019-01-03T01:06:47.171Z,4.57
2019-01-03T01:09:22.773Z,4.13
2019-01-03T01:12:10.745Z,4.37
2019-01-03T01:14:55.316Z,4.33
2019-01-03T01:17:36.964Z,4.10
2019-01-03T01:20:11.028Z,3.70
2019-01-03T01:22:49.485Z,5.40
2019-01-03T01:25:19.366Z,5.07
2019-01-03T01:27:49.225Z,5.13
2019-01-03T01:30:30.870Z,5.03
2019-01-03T01:33:16.955Z,4.63
2019-01-03T01:36:03.178Z,4.93
2019-01-03T01:38:33.051Z,5.00
2019-01-03T01:41:02.929Z,4.57
2019-01-03T01:43:35.766Z,4.73
2019-01-03T01:46:21.674Z,4.73
2019-01-03T01:49:00.786Z,4.23
2019-01-03T01:51:36.056Z,4.83
2019-01-03T01:54:05.943Z,5.07
2019-01-03T01:56:52.157Z,4.27
2019-01-03T01:59:22.946Z,4.10
2019-01-03T02:01:58.765Z,4.40
2019-01-03T02:04:31.396Z,4.60
2019-01-03T02:07:16.124Z,4.17
2019-01-03T02:10:02.315Z,4.83
2019-01-03T02:12:41.216Z,4.43
2019-01-03T02:15:11.088Z,4.57
2019-01-03T02:17:47.032Z,4.37
2019-01-03T02:20:33.051Z,4.53
2019-01-03T02:23:17.969Z,4.10
2019-01-03T02:25:50.588Z,4.67
2019-01-03T02:28:32.389Z,3.93
2019-01-03T02:31:18.355Z,3.53
2019-01-03T02:33:57.261Z,4.17
2019-01-03T02:36:33.169Z,3.37
2019-01-03T02:39:19.204Z,3.80
2019-01-03T02:41:55.029Z,3.47
2019-01-03T02:44:27.849Z,3.93
2019-01-03T02:47:12.844Z,3.93
2019-01-03T02:49:59.097Z,3.70
2019-01-03T02:52:47.101Z,3.70
2019-01-03T02:55:19.757Z,3.90
2019-01-03T02:58:04.352Z,2.93
2019-01-03T03:00:34.237Z,3.10
2019-01-03T03:03:06.762Z,4.20
2019-01-03T03:05:52.952Z,2.73
2019-01-03T03:08:22.836Z,3.33
2019-01-03T03:11:04.682Z,3.87
2019-01-03T03:13:50.781Z,3.60
2019-01-03T03:16:36.412Z,2.67
2019-01-03T03:19:24.403Z,3.50
2019-01-03T03:21:56.910Z,2.70
2019-01-03T03:24:38.575Z,2.60
2019-01-03T03:27:08.444Z,3.27
2019-01-03T03:29:38.309Z,2.97
2019-01-03T03:32:10.947Z,3.00
2019-01-03T03:34:57.103Z,3.60
2019-01-03T03:37:43.216Z,3.10
2019-01-03T03:40:16.194Z,2.57
2019-01-03T03:42:51.813Z,3.30
2019-01-03T03:45:37.915Z,2.93
2019-01-03T03:48:10.206Z,2.93
2019-01-03T03:50:43.075Z,1.80
2019-01-03T03:53:28.977Z,2.73
2019-01-03T03:56:01.301Z,2.60
2019-01-03T03:58:37.203Z,2.87
2019-01-03T04:01:23.118Z,2.60
2019-01-03T04:03:59.126Z,2.40
2019-01-03T04:06:44.113Z,2.70
2019-01-03T04:09:16.711Z,2.40
2019-01-03T04:11:49.510Z,3.10
2019-01-03T04:14:31.435Z,2.17
2019-01-03T04:17:16.161Z,2.10
2019-01-03T04:19:46.041Z,1.97
2019-01-03T04:22:21.599Z,2.20
2019-01-03T04:25:06.532Z,1.93
2019-01-03T04:27:42.450Z,1.87
2019-01-03T04:30:30.410Z,2.57
2019-01-03T04:33:12.162Z,2.10
2019-01-03T04:35:47.866Z,1.83
2019-01-03T04:38:29.833Z,1.93
2019-01-03T04:41:05.656Z,1.83
2019-01-03T04:43:47.551Z,1.70
2019-01-03T04:46:32.566Z,1.70
2019-01-03T04:49:17.489Z,2.37
2019-01-03T04:52:02.180Z,2.67
2019-01-03T04:54:43.658Z,1.83
2019-01-03T04:57:19.180Z,1.73
2019-01-03T04:59:58.041Z,1.27
2019-01-03T05:02:45.754Z,1.80
2019-01-03T05:05:18.128Z,2.60
2019-01-03T05:08:03.858Z,2.20
2019-01-03T05:10:49.883Z,1.90
2019-01-03T05:13:22.633Z,2.30
2019-01-03T05:16:08.487Z,1.60
2019-01-03T05:18:47.452Z,1.93
2019-01-03T05:21:32.141Z,2.13
2019-01-03T05:24:18.313Z,1.67
2019-01-03T05:26:54.113Z,2.20
2019-01-03T05:29:38.985Z,1.77
2019-01-03T05:32:24.925Z,1.93
2019-01-03T05:35:03.761Z,1.80
2019-01-03T05:37:36.429Z,2.07
2019-01-03T05:40:22.640Z,1.90
2019-01-03T05:42:52.510Z,2.40
2019-01-03T05:45:22.389Z,2.33
2019-01-03T05:47:55.208Z,2.00
2019-01-03T05:50:25.069Z,2.33
2019-01-03T05:53:10.890Z,2.30
2019-01-03T05:55:57.101Z,2.17
2019-01-03T05:58:33.085Z,1.63
2019-01-03T06:01:05.884Z,2.53
2019-01-03T06:03:50.873Z,2.60
2019-01-03T06:06:20.725Z,2.13
2019-01-03T06:09:05.478Z,2.13
2019-01-03T06:11:38.065Z,2.10
2019-01-03T06:14:10.758Z,1.70
2019-01-03T06:16:52.801Z,2.07
2019-01-03T06:19:28.668Z,2.00
2019-01-03T06:21:58.515Z,2.27
2019-01-03T06:24:28.394Z,2.23
2019-01-03T06:27:04.288Z,1.83
2019-01-03T06:29:34.217Z,1.97
2019-01-03T06:32:04.072Z,2.73
2019-01-03T06:34:49.940Z,1.93
2019-01-03T06:37:36.157Z,2.30
2019-01-03T06:40:09.690Z,2.60
2019-01-03T06:42:39.637Z,2.13
2019-01-03T06:45:27.646Z,2.17
2019-01-03T06:48:14.268Z,2.10
2019-01-03T06:51:00.479Z,2.03
2019-01-03T06:53:46.642Z,2.47
2019-01-03T06:56:22.546Z,2.00
2019-01-03T06:59:07.513Z,2.10
2019-01-03T07:01:53.665Z,2.00
2019-01-03T07:04:29.490Z,2.27
2019-01-03T07:07:15.496Z,1.90
2019-01-03T07:09:54.394Z,2.20
2019-01-03T07:12:27.192Z,1.50
2019-01-03T07:15:11.907Z,1.83
2019-01-03T07:17:41.800Z,2.37
2019-01-03T07:20:14.713Z,2.00
2019-01-03T07:22:59.783Z,2.43
2019-01-03T07:25:38.154Z,2.00
2019-01-03T07:28:24.128Z,1.47
2019-01-03T07:31:10.420Z,2.10
2019-01-03T07:33:46.297Z,1.43
2019-01-03T07:36:34.008Z,1.40
2019-01-03T07:39:12.326Z,2.07
2019-01-03T07:41:44.915Z,2.00
2019-01-03T07:44:29.745Z,1.97
2019-01-03T07:47:08.478Z,1.80
2019-01-03T07:49:54.577Z,1.90
2019-01-03T07:52:24.443Z,1.47
2019-01-03T07:55:09.198Z,1.80
2019-01-03T07:57:50.618Z,1.50
2019-01-03T08:00:38.358Z,1.67
2019-01-03T08:03:24.437Z,1.67
2019-01-03T08:05:56.842Z,2.03
2019-01-03T08:08:38.549Z,1.60
2019-01-03T08:11:14.106Z,1.97
2019-01-03T08:13:44.639Z,1.77
2019-01-03T08:16:20.602Z,1.67
2019-01-03T08:18:56.543Z,1.87
2019-01-03T08:21:29.460Z,1.47
2019-01-03T08:24:05.394Z,1.90
2019-01-03T08:26:51.679Z,1.90
2019-01-03T08:29:21.553Z,2.10
2019-01-03T08:31:51.423Z,1.53
2019-01-03T08:34:33.340Z,1.73
2019-01-03T08:37:19.281Z,1.50
2019-01-03T08:40:05.392Z,1.13
2019-01-03T08:42:50.273Z,1.40
2019-01-03T08:45:20.130Z,1.73
2019-01-03T08:48:08.072Z,1.90
2019-01-03T08:50:46.748Z,2.20
2019-01-03T08:53:32.605Z,1.80
2019-01-03T08:56:18.725Z,2.00
2019-01-03T08:59:04.843Z,2.60
2019-01-03T09:01:51.136Z,2.10
2019-01-03T09:04:35.947Z,2.30
2019-01-03T09:07:22.117Z,2.23
2019-01-03T09:10:08.397Z,3.00
2019-01-03T09:12:38.268Z,3.33
2019-01-03T09:15:17.112Z,2.47
2019-01-03T09:17:47.012Z,1.80
2019-01-03T09:20:19.730Z,2.27
2019-01-03T09:23:05.633Z,2.30
2019-01-03T09:25:50.692Z,2.37
2019-01-03T09:28:36.632Z,2.40
2019-01-03T09:31:12.445Z,1.90
2019-01-03T09:34:00.441Z,2.17
2019-01-03T09:36:35.720Z,2.03
2019-01-03T09:39:22.478Z,1.93
2019-01-03T09:42:08.602Z,2.13
2019-01-03T09:44:41.378Z,1.70
2019-01-03T09:47:09.630Z,1.97
2019-01-03T09:49:37.877Z,2.10
2019-01-03T09:52:06.123Z,2.10
2019-01-03T09:54:34.564Z,2.50
2019-01-03T09:57:02.804Z,1.83
2019-01-03T09:59:31.121Z,2.20
2019-01-03T10:01:59.399Z,1.83
2019-01-03T10:04:27.711Z,1.73
2019-01-03T10:06:55.990Z,1.63
2019-01-03T10:09:24.265Z,2.40
2019-01-03T10:11:52.498Z,2.40
2019-01-03T10:14:20.733Z,1.90
2019-01-03T10:16:48.953Z,1.80
2019-01-03T10:19:17.323Z,1.50
2019-01-03T10:21:45.605Z,1.80
2019-01-03T10:24:13.829Z,2.20
2019-01-03T10:26:42.058Z,1.90
2019-01-03T10:29:10.462Z,2.00
2019-01-03T10:31:38.761Z,1.83
2019-01-03T10:34:07.081Z,2.00
2019-01-03T10:36:35.392Z,2.00
2019-01-03T10:39:05.116Z,1.60
2019-01-03T10:41:33.437Z,1.70
2019-01-03T10:44:01.647Z,2.07
2019-01-03T10:46:29.864Z,2.20
2019-01-03T10:48:58.103Z,1.83
2019-01-03T10:51:26.341Z,1.93
2019-01-03T10:53:54.565Z,1.70
2019-01-03T10:56:22.801Z,1.50
2019-01-03T10:58:51.088Z,1.87
2019-01-03T11:01:19.317Z,1.93
2019-01-03T11:03:47.587Z,1.80
2019-01-03T11:06:15.929Z,1.57
2019-01-03T11:08:44.226Z,1.60
2019-01-03T11:11:12.457Z,1.40
2019-01-03T11:13:40.677Z,1.50
2019-01-03T11:16:08.969Z,1.50
2019-01-03T11:18:37.358Z,1.83
2019-01-03T11:21:05.586Z,2.13
2019-01-03T11:23:33.807Z,1.77
2019-01-03T11:26:02.049Z,1.60
2019-01-03T11:28:30.449Z,1.77
2019-01-03T11:30:58.707Z,1.90
2019-01-03T11:33:26.912Z,2.20
2019-01-03T11:35:55.128Z,1.13
2019-01-03T11:38:23.375Z,1.37
2019-01-03T11:40:51.600Z,2.07
2019-01-03T11:43:19.829Z,1.70
2019-01-03T11:45:48.047Z,1.80
2019-01-03T11:48:16.293Z,2.07
2019-01-03T11:50:44.521Z,1.97
2019-01-03T11:53:12.758Z,1.77
2019-01-03T11:55:40.973Z,2.07
2019-01-03T11:58:09.228Z,1.80
2019-01-03T12:00:37.453Z,1.63
2019-01-03T12:03:05.685Z,1.80
2019-01-03T12:05:33.901Z,1.30
2019-01-03T12:08:02.135Z,1.40
2019-01-03T12:10:30.546Z,2.10
2019-01-03T12:12:59.071Z,2.07
2019-01-03T12:15:27.326Z,1.17
2019-01-03T12:17:55.553Z,1.70
2019-01-03T12:20:23.789Z,1.67
2019-01-03T12:22:52.062Z,1.47
2019-01-03T12:25:20.273Z,1.97
2019-01-03T12:27:48.506Z,1.40
2019-01-03T12:30:16.737Z,1.93
2019-01-03T12:32:44.977Z,1.10
2019-01-03T12:35:13.189Z,1.53
2019-01-03T12:37:41.424Z,1.83
2019-01-03T12:40:09.713Z,1.50
2019-01-03T12:42:37.940Z,1.10
2019-01-03T12:45:07.204Z,1.20
2019-01-03T12:47:35.448Z,1.27
2019-01-03T12:50:06.072Z,1.10
2019-01-03T12:52:34.321Z,1.40
2019-01-03T12:55:02.679Z,1.00
2019-01-03T12:57:30.952Z,1.73
2019-01-03T12:59:59.292Z,1.50
2019-01-03T13:02:27.545Z,1.40
2019-01-03T13:04:55.840Z,1.83
2019-01-03T13:07:24.054Z,1.60
2019-01-03T13:09:52.423Z,1.33
2019-01-03T13:12:20.637Z,1.30
2019-01-03T13:14:48.874Z,1.60
2019-01-03T13:17:17.351Z,1.40
2019-01-03T13:19:45.742Z,1.57
2019-01-03T13:22:14.011Z,1.50
2019-01-03T13:24:42.406Z,1.13
2019-01-03T13:27:10.670Z,1.20
2019-01-03T13:29:38.897Z,1.63
2019-01-03T13:32:07.129Z,1.37
2019-01-03T13:34:35.361Z,1.83
2019-01-03T13:37:03.573Z,1.23
2019-01-03T13:39:31.809Z,1.33
2019-01-03T13:42:00.031Z,1.53
2019-01-03T13:44:28.358Z,1.40
2019-01-03T13:46:56.590Z,1.33
2019-01-03T13:49:24.845Z,1.33
2019-01-03T13:51:53.057Z,1.77
2019-01-03T13:54:21.300Z,1.27
2019-01-03T13:56:49.525Z,2.13
2019-01-03T13:59:17.757Z,1.50
2019-01-03T14:01:45.970Z,1.43
2019-01-03T14:04:14.214Z,1.83
2019-01-03T14:06:42.441Z,2.27
2019-01-03T14:09:10.665Z,1.47
2019-01-03T14:11:38.876Z,1.60
2019-01-03T14:14:07.105Z,1.63
2019-01-03T14:16:35.325Z,2.00
2019-01-03T14:19:04.398Z,1.70
2019-01-03T14:21:32.628Z,2.10
2019-01-03T14:24:00.845Z,2.57
2019-01-03T14:26:29.158Z,2.83
2019-01-03T14:28:57.424Z,2.27
2019-01-03T14:31:25.644Z,2.20
2019-01-03T14:33:54.025Z,2.10
2019-01-03T14:36:22.260Z,1.60
2019-01-03T14:38:50.479Z,1.73
2019-01-03T14:41:18.795Z,1.63
2019-01-03T14:43:47.058Z,1.43
2019-01-03T14:46:15.284Z,2.10
2019-01-03T14:48:43.509Z,1.60
2019-01-03T14:51:11.807Z,1.57
2019-01-03T14:53:40.025Z,5.60
2019-01-03T14:56:08.261Z,1.90
2019-01-03T14:58:36.538Z,1.50
2019-01-03T15:01:04.799Z,1.40
2019-01-03T15:03:33.025Z,1.00
2019-01-03T15:06:01.265Z,1.70
2019-01-03T15:08:29.483Z,1.43
2019-01-03T15:10:57.785Z,1.60
2019-01-03T15:13:26.001Z,1.40
2019-01-03T15:15:54.294Z,1.97
2019-01-03T15:18:22.562Z,1.30
2019-01-03T15:20:52.498Z,1.40
2019-01-03T15:23:20.709Z,1.60
2019-01-03T15:25:49.145Z,1.43
2019-01-03T15:28:17.362Z,1.33
2019-01-03T15:30:45.760Z,2.60
2019-01-03T15:33:13.983Z,3.53
2019-01-03T15:35:42.291Z,4.27
2019-01-03T15:38:10.519Z,8.10
2019-01-03T15:40:38.766Z,12.03
2019-01-03T15:43:06.993Z,6.43
2019-01-03T15:45:35.337Z,2.93
2019-01-03T15:48:03.565Z,2.50
2019-01-03T15:50:31.984Z,2.33
2019-01-03T15:53:00.263Z,1.70
2019-01-03T15:55:28.481Z,1.87
2019-01-03T15:57:56.753Z,2.00
2019-01-03T16:00:24.968Z,2.40
2019-01-03T16:02:53.197Z,2.57
2019-01-03T16:05:21.427Z,2.50
2019-01-03T16:07:49.650Z,2.40
2019-01-03T16:10:17.873Z,2.60
2019-01-03T16:12:46.170Z,2.07
2019-01-03T16:15:14.406Z,2.47
2019-01-03T16:17:43.082Z,2.50
2019-01-03T16:20:11.338Z,2.80
2019-01-03T16:22:39.901Z,2.60
2019-01-03T16:25:08.147Z,2.33
2019-01-03T16:27:36.382Z,2.80
2019-01-03T16:30:07.342Z,2.30
2019-01-03T16:32:35.575Z,2.40
2019-01-03T16:35:03.824Z,2.43
2019-01-03T16:37:32.081Z,2.83
2019-01-03T16:40:00.420Z,2.73
2019-01-03T16:42:39.676Z,2.60
2019-01-03T16:45:09.633Z,2.57
2019-01-03T16:47:37.870Z,2.10
2019-01-03T16:50:11.050Z,2.50
2019-01-03T16:52:39.328Z,2.60
2019-01-03T16:55:07.543Z,3.23
2019-01-03T16:57:35.773Z,2.53
2019-01-03T17:00:05.154Z,2.60
2019-01-03T17:02:33.408Z,2.87
2019-01-03T17:05:01.624Z,3.00
2019-01-03T17:07:29.885Z,2.90
2019-01-03T17:09:58.151Z,3.33
2019-01-03T17:12:26.376Z,4.70
2019-01-03T17:14:54.636Z,2.97
2019-01-03T17:17:22.948Z,3.73
2019-01-03T17:19:51.238Z,2.90
2019-01-03T17:22:19.465Z,3.53
2019-01-03T17:24:47.692Z,3.13
2019-01-03T17:27:15.987Z,3.30
2019-01-03T17:29:44.318Z,2.90
2019-01-03T17:32:12.545Z,2.63
2019-01-03T17:34:40.795Z,3.00
2019-01-03T17:37:09.013Z,3.37
2019-01-03T17:39:37.251Z,2.73
2019-01-03T17:42:05.473Z,2.47
2019-01-03T17:44:33.708Z,2.97
2019-01-03T17:47:01.983Z,2.80
2019-01-03T17:49:30.210Z,3.47
2019-01-03T17:51:58.518Z,3.40
2019-01-03T17:54:26.799Z,3.83
2019-01-03T17:56:55.128Z,3.93
2019-01-03T17:59:23.425Z,4.33
2019-01-03T18:01:51.665Z,3.17
2019-01-03T18:04:19.920Z,3.47
2019-01-03T18:06:48.309Z,4.13
2019-01-03T18:09:16.520Z,4.30
2019-01-03T18:11:44.767Z,3.63
2019-01-03T18:14:12.992Z,3.87
2019-01-03T18:16:41.212Z,4.70
2019-01-03T18:19:09.444Z,4.17
2019-01-03T18:21:37.684Z,4.97
2019-01-03T18:24:05.921Z,5.07
2019-01-03T18:26:34.161Z,5.10
2019-01-03T18:29:02.397Z,4.47
2019-01-03T18:31:30.666Z,3.50
2019-01-03T18:33:58.942Z,3.40
2019-01-03T18:36:27.152Z,3.20
2019-01-03T18:38:55.391Z,3.40
2019-01-03T18:41:23.889Z,4.70
2019-01-03T18:43:52.154Z,3.63
2019-01-03T18:46:20.481Z,3.77
2019-01-03T18:48:48.775Z,3.23
2019-01-03T18:51:17.013Z,3.20
2019-01-03T18:53:45.241Z,3.40
2019-01-03T18:56:13.511Z,3.10
2019-01-03T18:58:41.801Z,2.43
2019-01-03T19:01:10.025Z,2.73
2019-01-03T19:03:38.261Z,3.80
2019-01-03T19:06:06.501Z,3.90
2019-01-03T19:08:34.724Z,3.30
2019-01-03T19:11:03.116Z,3.77
2019-01-03T19:13:31.355Z,3.17
2019-01-03T19:15:59.591Z,3.40
2019-01-03T19:18:27.799Z,2.30
2019-01-03T19:20:56.061Z,2.30
2019-01-03T19:23:24.357Z,3.17
2019-01-03T19:25:52.764Z,2.63
2019-01-03T19:28:21.066Z,4.07
2019-01-03T19:30:49.344Z,3.70
2019-01-03T19:33:17.637Z,4.30
2019-01-03T19:35:45.894Z,3.63
2019-01-03T19:38:14.106Z,2.77
2019-01-03T19:40:42.349Z,2.93
2019-01-03T19:43:10.662Z,3.27
2019-01-03T19:45:38.896Z,4.73
2019-01-03T19:48:07.262Z,4.43
2019-01-03T19:50:35.570Z,3.63
2019-01-03T19:53:03.813Z,4.53
2019-01-03T19:55:32.041Z,4.10
2019-01-03T19:58:00.335Z,3.80
2019-01-03T20:00:28.634Z,3.47
2019-01-03T20:02:56.854Z,4.23
2019-01-03T20:05:25.089Z,4.00
2019-01-03T20:07:53.309Z,3.93
2019-01-03T20:10:21.546Z,3.63
2019-01-03T20:12:49.836Z,4.00
2019-01-03T20:15:18.057Z,3.27
2019-01-03T20:17:46.769Z,4.50
2019-01-03T20:20:14.997Z,3.93
2019-01-03T20:22:43.230Z,2.40
2019-01-03T20:25:11.456Z,3.90
2019-01-03T20:27:39.684Z,2.83
2019-01-03T20:30:09.845Z,3.17
2019-01-03T20:32:38.265Z,4.87
2019-01-03T20:35:06.836Z,3.40
2019-01-03T20:37:35.073Z,3.23
2019-01-03T20:40:04.280Z,3.37
2019-01-03T20:42:32.536Z,3.40
2019-01-03T20:45:00.761Z,2.93
2019-01-03T20:47:28.997Z,3.00
2019-01-03T20:49:57.224Z,3.40
2019-01-03T20:52:25.461Z,3.93
2019-01-03T20:54:53.677Z,2.50
2019-01-03T20:57:21.917Z,3.40
2019-01-03T20:59:50.141Z,2.90
2019-01-03T21:02:18.375Z,3.27
2019-01-03T21:04:46.691Z,2.90
2019-01-03T21:07:14.928Z,2.87
2019-01-03T21:09:43.142Z,3.17
2019-01-03T21:12:11.389Z,3.40
2019-01-03T21:14:39.619Z,3.33
2019-01-03T21:17:07.921Z,3.97
2019-01-03T21:19:36.203Z,3.93
2019-01-03T21:22:04.430Z,3.10
2019-01-03T21:24:32.704Z,4.37
2019-01-03T21:27:00.969Z,4.13
2019-01-03T21:29:29.207Z,4.30
2019-01-03T21:31:57.448Z,4.70
2019-01-03T21:34:25.676Z,3.90
2019-01-03T21:36:53.903Z,3.50
2019-01-03T21:39:22.217Z,3.97
2019-01-03T21:41:50.525Z,4.07
2019-01-03T21:44:18.745Z,4.00
2019-01-03T21:46:46.960Z,3.83
2019-01-03T21:49:15.202Z,4.23
2019-01-03T21:51:44.438Z,3.57
2019-01-03T21:54:14.365Z,3.73
2019-01-03T21:56:44.202Z,3.57
2019-01-03T21:59:14.125Z,3.37
2019-01-03T22:01:47.254Z,2.90
2019-01-03T22:05:12.947Z,3.57
2019-01-03T22:09:51.411Z,3.93
2019-01-03T22:12:21.506Z,3.23
2019-01-03T22:14:52.686Z,3.30
2019-01-03T22:17:25.461Z,3.57
2019-01-03T22:19:55.074Z,4.00
2019-01-03T22:22:29.147Z,4.00
2019-01-03T22:25:00.677Z,3.93
2019-01-03T22:27:28.897Z,4.80
2019-01-03T22:29:57.139Z,4.40
2019-01-03T22:32:25.353Z,4.13
2019-01-03T22:34:53.602Z,4.27
2019-01-03T22:37:21.817Z,3.10
2019-01-03T22:39:50.049Z,3.43
2019-01-03T22:42:18.263Z,4.57
2019-01-03T22:44:46.617Z,3.30
2019-01-03T22:47:14.871Z,4.30
2019-01-03T22:49:43.100Z,3.50
2019-01-03T22:52:14.337Z,3.37
2019-01-03T22:54:42.569Z,3.70
2019-01-03T22:57:10.793Z,3.90
2019-01-03T22:59:39.031Z,4.20
2019-01-03T23:02:07.249Z,2.60
2019-01-03T23:04:35.488Z,3.97
2019-01-03T23:07:03.772Z,3.07
2019-01-03T23:09:32.022Z,2.63
2019-01-03T23:12:00.236Z,2.40
2019-01-03T23:14:28.473Z,3.90
2019-01-03T23:16:56.690Z,4.50
2019-01-03T23:19:24.925Z,3.67
2019-01-03T23:21:53.145Z,4.17
2019-01-03T23:24:21.389Z,4.40
2019-01-03T23:26:49.629Z,4.27
2019-01-03T23:29:17.866Z,3.50
2019-01-03T23:31:46.081Z,2.70
2019-01-03T23:34:14.294Z,3.10
2019-01-03T23:36:42.543Z,4.73
2019-01-03T23:39:10.749Z,4.77
2019-01-03T23:41:39.230Z,4.80
2019-01-03T23:44:07.639Z,5.07
2019-01-03T23:46:37.528Z,5.03
2019-01-03T23:49:05.749Z,4.70
2019-01-03T23:51:34.240Z,4.70
2019-01-03T23:54:02.471Z,4.90
2019-01-03T23:56:30.696Z,4.57
2019-01-03T23:58:58.923Z,5.33
